Time;durP1;ratioP1;P1;durP2;ratioP2;P2;SDS_P1;SDS_P2;PMS_P1;PMS_P2;Temp;Humidity;BMP_temperature;BMP_pressure;BME280_temperature;BME280_humidity;BME280_pressure;Samples;Min_cycle;Max_cycle;Signal;HPM_P1;HPM_P2
2021/09/11 04:22:23;;;;;;;5.13;2.13;;;24.30;76.90;;;;;;5062121;28;81755;-54
2021/09/11 04:24:49;;;;;;;6.85;2.33;;;24.30;77.50;;;;;;5061236;28;80579;-60
2021/09/11 04:27:15;;;;;;;4.90;2.40;;;24.30;77.60;;;;;;5059557;28;81226;-59
2021/09/11 04:29:40;;;;;;;3.13;2.00;;;24.30;77.60;;;;;;5059009;28;83037;-58
2021/09/11 04:32:06;;;;;;;3.90;2.05;;;24.30;77.50;;;;;;5050688;28;81496;-59
2021/09/11 04:34:32;;;;;;;3.95;2.05;;;24.40;77.30;;;;;;5059062;28;80768;-58
2021/09/11 04:36:58;;;;;;;4.50;2.33;;;24.40;77.10;;;;;;5059430;27;81836;-59
2021/09/11 04:39:23;;;;;;;6.22;2.30;;;24.50;76.80;;;;;;5049939;28;81666;-61
2021/09/11 04:41:49;;;;;;;18.77;2.00;;;24.60;76.70;;;;;;5053815;28;80873;-59
2021/09/11 04:44:15;;;;;;;4.15;2.38;;;24.60;76.50;;;;;;5062082;28;80549;-61
2021/09/11 04:46:40;;;;;;;7.95;2.75;;;24.60;76.30;;;;;;5047401;28;81280;-60
2021/09/11 04:49:06;;;;;;;6.00;2.13;;;24.60;76.10;;;;;;5059612;28;81856;-59
2021/09/11 04:51:32;;;;;;;6.30;2.25;;;24.70;76.00;;;;;;5052597;27;81935;-60
2021/09/11 04:53:57;;;;;;;6.13;2.28;;;24.70;75.90;;;;;;5060822;28;81189;-59
2021/09/11 04:56:23;;;;;;;8.90;2.50;;;24.70;75.80;;;;;;5052867;28;81037;-60
2021/09/11 04:58:49;;;;;;;3.83;2.33;;;24.70;75.70;;;;;;5054089;28;81699;-60
2021/09/11 05:01:14;;;;;;;3.97;2.20;;;24.80;75.60;;;;;;5058981;27;81189;-58
2021/09/11 05:03:40;;;;;;;6.55;1.90;;;24.80;75.40;;;;;;5062379;28;81629;-58
2021/09/11 05:06:06;;;;;;;7.80;2.67;;;24.80;75.40;;;;;;5056796;28;80753;-59
2021/09/11 05:08:31;;;;;;;9.55;2.08;;;24.80;75.20;;;;;;5056211;28;81206;-60
2021/09/11 05:10:57;;;;;;;5.47;2.40;;;24.80;75.00;;;;;;5055894;28;82915;-59
2021/09/11 05:13:23;;;;;;;6.90;2.10;;;24.80;74.80;;;;;;5063121;28;80657;-59
2021/09/11 05:15:48;;;;;;;8.48;2.10;;;24.80;74.80;;;;;;5057763;28;80731;-59
2021/09/11 05:18:14;;;;;;;5.80;2.05;;;24.80;74.70;;;;;;5052372;28;81728;-59
2021/09/11 05:20:39;;;;;;;7.68;1.85;;;24.90;74.70;;;;;;5050176;27;81739;-59
2021/09/11 05:23:05;;;;;;;6.50;2.40;;;24.90;74.60;;;;;;5050009;28;80637;-59
2021/09/11 05:25:31;;;;;;;4.15;2.20;;;24.90;74.50;;;;;;5051614;28;80779;-60
2021/09/11 05:27:57;;;;;;;3.70;2.00;;;24.90;74.40;;;;;;5054240;28;81697;-58
2021/09/11 05:30:22;;;;;;;6.47;1.75;;;24.90;74.30;;;;;;5062063;27;83399;-62
2021/09/11 05:32:48;;;;;;;5.53;2.72;;;24.90;74.20;;;;;;5055265;27;80641;-61
2021/09/11 05:35:14;;;;;;;5.13;2.10;;;24.90;74.40;;;;;;5047204;28;80604;-60
2021/09/11 05:37:39;;;;;;;8.82;2.47;;;24.90;74.40;;;;;;5039481;28;81408;-61
2021/09/11 05:40:06;;;;;;;14.38;2.28;;;24.90;74.60;;;;;;5046470;28;81414;-60
2021/09/11 05:42:35;;;;;;;29.45;3.20;;;24.90;74.60;;;;;;5043601;28;80721;-58
2021/09/11 05:45:00;;;;;;;12.50;2.42;;;24.90;74.70;;;;;;5040912;28;81552;-59
2021/09/11 05:47:26;;;;;;;9.77;3.45;;;24.90;74.70;;;;;;5048063;28;81608;-59
2021/09/11 05:49:52;;;;;;;15.85;2.70;;;24.90;74.40;;;;;;5049516;28;81978;-60
2021/09/11 05:52:17;;;;;;;14.30;4.20;;;24.90;73.70;;;;;;5047055;28;80613;-60
2021/09/11 05:54:43;;;;;;;7.22;3.85;;;24.90;73.60;;;;;;5049664;28;80846;-59
2021/09/11 05:57:09;;;;;;;6.57;3.63;;;24.90;73.40;;;;;;5047510;28;81627;-58
2021/09/11 05:59:34;;;;;;;5.40;2.97;;;24.90;73.30;;;;;;5041991;28;81941;-58
2021/09/11 06:02:00;;;;;;;11.63;3.42;;;24.90;73.10;;;;;;5044052;28;81081;-57
2021/09/11 06:04:26;;;;;;;6.88;3.67;;;24.90;72.80;;;;;;5046292;28;80862;-59
2021/09/11 06:06:54;;;;;;;10.30;3.00;;;24.90;72.70;;;;;;5032636;28;81640;-59
2021/09/11 06:09:20;;;;;;;5.78;3.08;;;24.90;73.20;;;;;;5041225;28;81279;-61
2021/09/11 06:11:46;;;;;;;11.90;3.25;;;24.90;73.20;;;;;;5033348;28;81200;-58
2021/09/11 06:14:11;;;;;;;12.32;3.15;;;24.90;73.40;;;;;;5037988;28;82421;-59
2021/09/11 06:16:37;;;;;;;4.85;3.22;;;24.90;73.50;;;;;;5039378;28;80946;-59
2021/09/11 06:19:03;;;;;;;6.45;3.08;;;24.90;73.30;;;;;;5051755;28;80955;-59
2021/09/11 06:21:28;;;;;;;9.93;2.67;;;24.90;73.20;;;;;;5042547;28;81094;-59
2021/09/11 06:23:54;;;;;;;6.82;3.25;;;24.90;73.10;;;;;;5040443;28;80787;-59
2021/09/11 06:26:20;;;;;;;8.93;2.95;;;24.90;73.10;;;;;;5041557;28;81544;-59
2021/09/11 06:28:46;;;;;;;8.18;2.97;;;24.90;72.90;;;;;;5041230;28;80630;-59
2021/09/11 06:31:11;;;;;;;4.32;3.60;;;24.90;72.90;;;;;;5042166;28;80994;-59
2021/09/11 06:33:37;;;;;;;5.32;2.97;;;24.90;72.80;;;;;;5045799;28;81789;-59
2021/09/11 06:36:03;;;;;;;6.63;3.00;;;24.90;72.90;;;;;;5037155;28;83413;-60
2021/09/11 06:38:29;;;;;;;4.65;2.75;;;24.90;72.80;;;;;;5043448;28;81604;-60
2021/09/11 06:40:54;;;;;;;8.40;2.78;;;24.90;72.80;;;;;;5040823;28;80622;-59
2021/09/11 06:43:20;;;;;;;3.67;2.28;;;24.90;72.70;;;;;;5044743;28;80745;-59
2021/09/11 06:45:46;;;;;;;4.25;3.03;;;24.90;72.80;;;;;;5031479;28;81753;-59
2021/09/11 06:48:11;;;;;;;5.43;3.10;;;24.90;72.70;;;;;;5034766;28;81709;-58
2021/09/11 06:50:37;;;;;;;3.78;2.67;;;24.90;72.90;;;;;;5035713;28;81676;-59
2021/09/11 06:53:03;;;;;;;4.28;3.03;;;24.90;72.80;;;;;;5041092;28;81011;-59
2021/09/11 06:55:28;;;;;;;5.05;2.97;;;24.90;72.70;;;;;;5041977;28;81603;-57
2021/09/11 06:57:54;;;;;;;4.72;2.63;;;24.90;72.70;;;;;;5036868;28;81479;-59
2021/09/11 07:00:20;;;;;;;9.05;3.35;;;24.90;72.90;;;;;;5042248;28;80681;-58
2021/09/11 07:02:45;;;;;;;7.35;2.80;;;24.90;73.10;;;;;;5045480;28;81146;-59
2021/09/11 07:05:11;;;;;;;10.27;3.00;;;24.90;73.10;;;;;;5035002;28;81646;-60
2021/09/11 07:07:37;;;;;;;5.15;2.55;;;24.90;73.00;;;;;;5042838;28;82346;-57
2021/09/11 07:10:03;;;;;;;9.85;3.17;;;24.90;72.90;;;;;;5039024;28;81134;-59
2021/09/11 07:12:29;;;;;;;10.23;2.92;;;24.90;73.00;;;;;;5042423;28;82137;-59
2021/09/11 07:14:56;;;;;;;7.55;3.00;;;24.90;73.00;;;;;;5043862;28;81500;-59
2021/09/11 07:17:22;;;;;;;8.68;3.10;;;24.90;72.90;;;;;;5043202;28;82634;-59
2021/09/11 07:19:47;;;;;;;11.45;3.42;;;24.90;72.90;;;;;;5042695;28;81758;-58
2021/09/11 07:22:13;;;;;;;6.03;2.97;;;24.90;73.50;;;;;;5047321;28;80593;-58
2021/09/11 07:24:39;;;;;;;14.70;3.17;;;24.90;73.70;;;;;;5046343;28;83267;-60
2021/09/11 07:27:05;;;;;;;7.80;5.18;;;24.90;73.70;;;;;;5033914;28;81887;-54
2021/09/11 07:29:30;;;;;;;9.68;4.85;;;24.90;70.30;;;;;;5039210;28;81561;-56
2021/09/11 07:31:56;;;;;;;8.25;5.53;;;24.30;72.30;;;;;;5033429;28;82134;-56
2021/09/11 07:34:21;;;;;;;8.30;5.47;;;23.70;73.10;;;;;;5045027;28;82264;-53
2021/09/11 07:36:47;;;;;;;6.80;4.38;;;23.30;76.30;;;;;;5040433;28;81379;-56
2021/09/11 07:39:14;;;;;;;10.35;4.57;;;23.00;77.10;;;;;;5034598;28;80448;-58
2021/09/11 07:41:40;;;;;;;9.52;4.45;;;22.90;76.60;;;;;;5035726;28;82458;-60
2021/09/11 07:44:06;;;;;;;17.08;4.53;;;22.90;78.40;;;;;;5046857;28;81556;-59
2021/09/11 07:46:31;;;;;;;14.90;4.38;;;23.10;78.60;;;;;;5045851;28;81308;-58
2021/09/11 07:48:57;;;;;;;11.95;4.57;;;23.30;78.10;;;;;;5032963;28;80471;-57
2021/09/11 07:51:23;;;;;;;11.88;3.75;;;23.50;77.60;;;;;;5036140;28;81078;-59
2021/09/11 07:53:48;;;;;;;15.88;3.90;;;23.60;77.20;;;;;;5046744;28;83224;-60
2021/09/11 07:56:14;;;;;;;8.25;3.60;;;23.80;76.80;;;;;;5045590;28;80950;-59
2021/09/11 07:58:39;;;;;;;8.30;3.33;;;23.90;76.60;;;;;;5044208;28;81168;-58
2021/09/11 08:01:05;;;;;;;9.93;3.25;;;23.90;76.50;;;;;;5046379;28;80937;-59
2021/09/11 08:03:31;;;;;;;7.50;3.15;;;24.00;76.10;;;;;;5046993;28;82176;-59
2021/09/11 08:05:56;;;;;;;6.10;3.17;;;24.00;75.80;;;;;;5034765;28;81775;-60
2021/09/11 08:08:23;;;;;;;9.23;3.55;;;24.10;75.70;;;;;;5046192;28;80515;-59
2021/09/11 08:10:49;;;;;;;8.15;3.15;;;24.10;75.60;;;;;;5047129;28;81058;-60
2021/09/11 08:13:15;;;;;;;7.38;2.83;;;24.20;75.50;;;;;;5046339;28;83181;-58
2021/09/11 08:15:44;;;;;;;9.07;3.15;;;24.20;75.40;;;;;;5034331;28;82899;-58
2021/09/11 08:18:11;;;;;;;6.40;3.45;;;24.20;75.30;;;;;;5036909;28;80958;-60
2021/09/11 08:20:38;;;;;;;7.18;3.40;;;24.30;75.20;;;;;;5046050;28;80637;-59
2021/09/11 08:23:04;;;;;;;6.97;2.92;;;24.30;75.10;;;;;;5045153;28;82241;-60
2021/09/11 08:25:31;;;;;;;7.80;3.13;;;24.30;75.10;;;;;;5045955;28;82439;-59
2021/09/11 08:27:56;;;;;;;8.75;3.72;;;24.30;75.00;;;;;;5046499;28;81907;-59
2021/09/11 08:30:22;;;;;;;5.43;3.10;;;24.30;74.90;;;;;;5027677;28;81697;-59
2021/09/11 08:32:48;;;;;;;5.80;2.90;;;24.30;74.80;;;;;;5040228;28;81115;-60
2021/09/11 08:35:13;;;;;;;7.72;2.78;;;24.40;74.80;;;;;;5032485;28;83068;-59
2021/09/11 08:37:40;;;;;;;5.57;2.95;;;24.40;74.80;;;;;;5045013;28;83989;-59
2021/09/11 08:40:06;;;;;;;6.00;2.90;;;24.40;74.70;;;;;;5045855;28;80942;-59
2021/09/11 08:42:32;;;;;;;5.65;2.97;;;24.40;74.60;;;;;;5045486;28;81525;-59
2021/09/11 08:44:58;;;;;;;7.35;3.58;;;24.40;74.60;;;;;;5045697;28;83664;-59
2021/09/11 08:47:24;;;;;;;5.15;2.60;;;24.40;74.50;;;;;;5044508;28;81551;-59
2021/09/11 08:49:50;;;;;;;8.20;2.88;;;24.40;74.50;;;;;;5035031;28;81558;-58
2021/09/11 08:52:16;;;;;;;9.63;3.00;;;24.50;74.50;;;;;;5039062;28;80779;-60
2021/09/11 08:54:41;;;;;;;6.28;2.92;;;24.50;74.50;;;;;;5035824;28;82304;-59
2021/09/11 08:57:17;;;;;;;6.65;2.38;;;24.50;74.40;;;;;;5045421;28;81364;-59
2021/09/11 08:59:43;;;;;;;4.07;2.50;;;24.50;74.40;;;;;;5044687;28;82293;-60
2021/09/11 09:02:09;;;;;;;8.68;3.08;;;24.50;74.30;;;;;;5045129;28;81150;-59
2021/09/11 09:04:45;;;;;;;4.93;2.65;;;24.60;74.30;;;;;;5032805;28;82545;-59
2021/09/11 09:07:11;;;;;;;5.35;2.75;;;24.60;74.30;;;;;;5045805;28;81891;-58
2021/09/11 09:09:40;;;;;;;5.00;3.08;;;24.60;74.20;;;;;;5048365;28;81077;-60
2021/09/11 09:12:14;;;;;;;4.53;2.63;;;24.60;74.10;;;;;;5036573;28;83349;-59
2021/09/11 09:14:57;;;;;;;5.57;2.78;;;24.60;74.10;;;;;;5041299;28;84205;-60
2021/09/11 09:17:37;;;;;;;5.50;2.65;;;24.60;74.10;;;;;;5034299;28;83372;-60
2021/09/11 09:20:22;;;;;;;6.22;2.92;;;24.60;74.10;;;;;;5047809;28;81361;-59
2021/09/11 09:23:08;;;;;;;4.25;2.40;;;24.60;74.00;;;;;;5047762;28;83483;-59
2021/09/11 09:25:36;;;;;;;5.60;2.95;;;24.60;74.00;;;;;;5043900;28;84445;-59
2021/09/11 09:28:14;;;;;;;5.70;2.88;;;24.70;74.00;;;;;;5043673;28;82100;-59
2021/09/11 09:30:42;;;;;;;4.55;2.88;;;24.70;74.00;;;;;;5037721;28;81624;-59
2021/09/11 09:33:19;;;;;;;4.22;2.28;;;24.70;73.90;;;;;;5047312;28;81491;-60
2021/09/11 09:35:46;;;;;;;5.60;2.80;;;24.70;73.80;;;;;;5034540;28;82432;-60
2021/09/11 09:38:12;;;;;;;8.15;2.85;;;24.70;73.80;;;;;;5047911;28;82148;-59
2021/09/11 09:40:56;;;;;;;5.80;1.60;;;24.70;73.70;;;;;;5035774;28;82186;-58
2021/09/11 09:43:44;;;;;;;5.22;2.65;;;24.70;73.70;;;;;;5048644;28;80995;-59
2021/09/11 09:46:15;;;;;;;4.35;2.47;;;24.70;73.60;;;;;;5038262;28;83415;-60
2021/09/11 09:48:43;;;;;;;5.43;2.95;;;24.70;73.60;;;;;;5037837;28;81864;-56
2021/09/11 09:51:14;;;;;;;4.97;2.40;;;24.80;73.60;;;;;;5047516;28;82087;-58
2021/09/11 09:53:42;;;;;;;5.47;2.20;;;24.80;73.60;;;;;;5047735;28;82761;-57
2021/09/11 09:56:08;;;;;;;3.20;2.10;;;24.80;73.60;;;;;;5047487;28;81160;-58
2021/09/11 09:58:35;;;;;;;6.18;2.47;;;24.80;73.50;;;;;;5035002;28;81914;-59
2021/09/11 10:01:01;;;;;;;5.20;2.70;;;24.80;73.50;;;;;;5040549;28;81185;-58
2021/09/11 10:03:27;;;;;;;5.72;2.30;;;24.80;73.50;;;;;;5046988;28;83559;-59
2021/09/11 10:06:21;;;;;;;4.22;2.58;;;24.80;73.50;;;;;;5047913;28;82324;-59
2021/09/11 10:09:07;;;;;;;6.50;3.03;;;24.80;73.50;;;;;;5041839;28;83763;-59
2021/09/11 10:11:37;;;;;;;4.68;2.97;;;24.80;73.40;;;;;;5045870;28;81552;-59
2021/09/11 10:14:14;;;;;;;4.13;2.30;;;24.80;73.40;;;;;;5045056;28;82138;-57
2021/09/11 10:16:42;;;;;;;3.85;2.20;;;24.90;73.50;;;;;;5044959;28;82978;-59
2021/09/11 10:19:22;;;;;;;4.90;2.50;;;24.90;73.40;;;;;;5046824;28;83221;-59
2021/09/11 10:21:50;;;;;;;3.92;2.25;;;24.90;73.40;;;;;;5046353;28;81363;-59
2021/09/11 10:24:21;;;;;;;5.43;2.40;;;24.80;73.30;;;;;;5042011;28;81879;-58
2021/09/11 10:26:53;;;;;;;4.40;2.60;;;24.90;73.40;;;;;;5047566;28;83069;-59
2021/09/11 10:29:33;;;;;;;5.28;2.78;;;24.90;73.40;;;;;;5034774;28;82188;-59
2021/09/11 10:32:13;;;;;;;5.78;2.55;;;24.90;73.40;;;;;;5038023;28;81510;-59
2021/09/11 10:34:55;;;;;;;5.10;2.55;;;24.90;73.30;;;;;;5041268;28;83489;-59
2021/09/11 10:37:39;;;;;;;4.20;2.17;;;24.90;73.40;;;;;;5039449;28;83272;-59
2021/09/11 10:40:26;;;;;;;5.57;2.33;;;24.90;73.30;;;;;;5039474;28;83040;-59
2021/09/11 10:43:09;;;;;;;3.75;2.35;;;24.90;73.30;;;;;;5038840;28;82108;-59
2021/09/11 10:45:53;;;;;;;3.80;2.28;;;24.90;73.30;;;;;;5038217;28;81362;-58
2021/09/11 10:48:49;;;;;;;4.55;2.20;;;24.90;73.30;;;;;;5043802;28;81614;-59
2021/09/11 10:51:30;;;;;;;5.50;2.67;;;24.90;73.30;;;;;;5040134;28;83704;-58
2021/09/11 10:54:20;;;;;;;3.33;2.38;;;24.90;73.30;;;;;;5037907;28;81624;-59
2021/09/11 10:56:48;;;;;;;5.57;2.38;;;25.00;73.40;;;;;;5041495;28;81640;-59
2021/09/11 10:59:14;;;;;;;4.75;2.78;;;24.90;73.30;;;;;;5034103;28;83802;-59
2021/09/11 11:01:58;;;;;;;4.03;2.30;;;25.00;73.40;;;;;;5041563;28;83520;-60
2021/09/11 11:04:28;;;;;;;4.30;2.67;;;25.00;73.40;;;;;;5045566;28;81079;-59
2021/09/11 11:06:56;;;;;;;4.78;2.20;;;25.00;73.40;;;;;;5044529;28;81423;-60
2021/09/11 11:09:23;;;;;;;6.57;2.15;;;25.00;73.40;;;;;;5037132;28;84087;-59
2021/09/11 11:11:50;;;;;;;4.35;2.15;;;25.00;73.40;;;;;;5033295;28;82082;-60
2021/09/11 11:14:16;;;;;;;4.95;2.28;;;25.00;73.30;;;;;;5047025;28;81229;-59
2021/09/11 11:16:53;;;;;;;4.55;3.25;;;25.00;73.30;;;;;;5046730;28;81717;-59
2021/09/11 11:19:29;;;;;;;3.92;2.22;;;25.10;73.40;;;;;;5045264;28;82590;-58
2021/09/11 11:21:59;;;;;;;3.58;2.15;;;25.10;73.30;;;;;;5036024;28;81883;-60
2021/09/11 11:24:30;;;;;;;2.95;1.90;;;25.00;73.30;;;;;;5046822;28;81186;-60
2021/09/11 11:26:59;;;;;;;6.03;1.98;;;25.10;73.30;;;;;;5047369;28;80981;-59
2021/09/11 11:29:26;;;;;;;4.85;2.25;;;25.10;73.30;;;;;;5042119;28;83850;-60
2021/09/11 11:31:52;;;;;;;3.78;2.28;;;25.10;73.30;;;;;;5026160;28;83526;-60
2021/09/11 11:34:18;;;;;;;3.30;2.15;;;25.10;73.30;;;;;;5039598;28;82441;-60
2021/09/11 11:36:51;;;;;;;3.72;2.38;;;25.10;73.30;;;;;;5027366;28;81370;-58
2021/09/11 11:39:21;;;;;;;3.38;2.17;;;25.10;73.30;;;;;;5044259;28;83887;-59
2021/09/11 11:42:05;;;;;;;3.42;2.00;;;25.10;73.30;;;;;;5039821;28;83625;-60
2021/09/11 11:44:35;;;;;;;3.85;2.00;;;25.10;73.30;;;;;;5042068;28;81095;-60
2021/09/11 11:47:15;;;;;;;3.85;2.08;;;25.10;73.30;;;;;;5039404;28;81739;-59
2021/09/11 11:49:41;;;;;;;3.05;2.10;;;25.10;73.20;;;;;;5041534;28;82570;-57
2021/09/11 11:52:09;;;;;;;3.53;2.08;;;25.10;73.30;;;;;;5032775;28;82167;-60
2021/09/11 11:54:36;;;;;;;3.53;2.00;;;25.10;73.30;;;;;;5045441;28;81479;-59
2021/09/11 11:57:23;;;;;;;3.22;1.95;;;25.10;73.20;;;;;;5038793;28;81059;-60
2021/09/11 12:00:11;;;;;;;4.38;2.28;;;25.20;73.30;;;;;;5045863;28;82463;-60
2021/09/11 12:02:39;;;;;;;4.72;2.22;;;25.20;73.30;;;;;;5034408;28;84360;-57
2021/09/11 12:05:15;;;;;;;3.53;2.20;;;25.20;73.30;;;;;;5039163;28;81075;-59
2021/09/11 12:07:41;;;;;;;2.53;1.55;;;25.20;73.30;;;;;;5037381;28;81796;-58
2021/09/11 12:10:16;;;;;;;2.78;1.67;;;25.20;73.30;;;;;;5034979;28;83065;-60
2021/09/11 12:12:56;;;;;;;2.75;1.70;;;25.20;73.30;;;;;;5035059;28;83134;-59
2021/09/11 12:15:25;;;;;;;2.55;1.38;;;25.20;73.30;;;;;;5035563;28;81900;-60
2021/09/11 12:17:56;;;;;;;3.78;1.67;;;25.20;73.30;;;;;;5035029;28;81631;-60
2021/09/11 12:20:23;;;;;;;5.55;1.73;;;25.30;73.40;;;;;;5039640;28;83468;-60
2021/09/11 12:23:10;;;;;;;3.55;1.98;;;25.30;73.40;;;;;;5045081;28;81444;-60
2021/09/11 12:26:07;;;;;;;3.78;1.92;;;25.30;73.50;;;;;;5044985;28;82274;-61
2021/09/11 12:28:35;;;;;;;2.97;1.77;;;25.30;73.40;;;;;;5038637;28;84688;-61
2021/09/11 12:31:01;;;;;;;2.90;1.52;;;25.30;73.40;;;;;;5037893;28;82361;-59
2021/09/11 12:33:27;;;;;;;4.95;1.98;;;25.30;73.40;;;;;;5036830;28;83767;-60
2021/09/11 12:35:53;;;;;;;3.72;1.95;;;25.30;73.30;;;;;;5037881;28;81181;-60
2021/09/11 12:38:19;;;;;;;4.82;1.95;;;25.30;71.60;;;;;;5031253;28;81712;-60
2021/09/11 12:40:44;;;;;;;7.30;1.92;;;25.30;71.80;;;;;;5041570;28;82175;-60
2021/09/11 12:43:11;;;;;;;5.95;2.40;;;25.30;72.40;;;;;;5037369;28;82105;-60
2021/09/11 12:45:40;;;;;;;3.97;1.95;;;25.30;72.40;;;;;;5047976;28;82257;-59
2021/09/11 12:48:07;;;;;;;4.32;1.98;;;25.30;72.20;;;;;;5047174;28;82328;-60
2021/09/11 12:50:32;;;;;;;3.78;2.17;;;25.30;71.10;;;;;;5034785;28;82297;-60
2021/09/11 12:52:58;;;;;;;5.15;1.63;;;25.30;71.50;;;;;;5042626;28;81979;-60
2021/09/11 12:55:25;;;;;;;4.15;2.10;;;25.30;71.40;;;;;;5047113;28;81191;-60
2021/09/11 12:57:51;;;;;;;5.13;2.47;;;25.30;70.70;;;;;;5036091;28;81544;-60
2021/09/11 13:00:17;;;;;;;3.38;2.35;;;25.30;69.10;;;;;;5041085;28;83497;-60
2021/09/11 13:02:43;;;;;;;3.83;2.47;;;25.30;70.10;;;;;;5040462;28;82049;-60
2021/09/11 13:05:10;;;;;;;4.47;2.35;;;25.30;70.30;;;;;;5037760;28;81382;-58
2021/09/11 13:07:35;;;;;;;3.53;2.28;;;25.30;70.60;;;;;;5037502;28;83348;-60
2021/09/11 13:10:01;;;;;;;3.50;2.40;;;25.30;70.10;;;;;;5039440;28;83853;-60
2021/09/11 13:12:27;;;;;;;6.28;2.30;;;25.30;70.10;;;;;;5039615;28;81292;-60
2021/09/11 13:14:52;;;;;;;5.90;2.70;;;25.30;69.60;;;;;;5030524;28;82149;-58
2021/09/11 13:17:18;;;;;;;8.73;2.58;;;25.30;70.00;;;;;;5036860;28;81211;-59
2021/09/11 13:19:44;;;;;;;8.75;2.45;;;25.30;70.00;;;;;;5048752;28;83426;-59
2021/09/11 13:22:09;;;;;;;7.85;2.67;;;25.40;69.70;;;;;;5050803;28;83829;-59
2021/09/11 13:24:35;;;;;;;11.73;2.67;;;25.30;69.80;;;;;;5048256;28;81116;-58
2021/09/11 13:27:01;;;;;;;9.40;2.53;;;25.40;70.00;;;;;;5033574;28;84362;-59
2021/09/11 13:29:27;;;;;;;8.48;2.38;;;25.40;70.20;;;;;;5041710;28;82265;-59
2021/09/11 13:31:54;;;;;;;8.35;2.25;;;25.30;70.10;;;;;;5042330;28;83516;-57
2021/09/11 13:34:21;;;;;;;6.72;2.30;;;25.30;69.80;;;;;;5042411;28;82702;-57
2021/09/11 13:36:47;;;;;;;5.93;2.90;;;25.40;69.80;;;;;;5040551;28;81694;-58
2021/09/11 13:39:12;;;;;;;6.18;3.08;;;25.40;69.50;;;;;;5044264;28;82516;-59
2021/09/11 13:41:38;;;;;;;6.25;2.50;;;25.40;69.50;;;;;;5040238;28;82633;-57
2021/09/11 13:44:04;;;;;;;6.10;2.90;;;25.40;69.80;;;;;;5046812;28;83222;-58
2021/09/11 13:46:30;;;;;;;7.75;3.25;;;25.40;69.50;;;;;;5040364;28;84514;-61
2021/09/11 13:48:55;;;;;;;5.75;2.88;;;25.40;70.10;;;;;;5037458;28;81658;-58
2021/09/11 13:51:21;;;;;;;7.05;2.58;;;25.40;70.20;;;;;;5045067;28;81993;-60
2021/09/11 13:53:47;;;;;;;5.38;3.15;;;25.40;70.50;;;;;;5038538;28;81065;-59
2021/09/11 13:56:13;;;;;;;5.43;2.25;;;25.40;70.50;;;;;;5039472;28;80965;-59
2021/09/11 13:58:40;;;;;;;7.07;2.13;;;25.40;68.30;;;;;;5041698;28;82485;-60
2021/09/11 14:01:05;;;;;;;5.88;1.88;;;25.40;67.60;;;;;;5041716;28;83191;-59
2021/09/11 14:03:31;;;;;;;8.32;1.73;;;25.40;68.00;;;;;;5039994;28;82023;-59
2021/09/11 14:05:57;;;;;;;4.95;2.28;;;25.40;69.30;;;;;;5040359;28;81312;-57
2021/09/11 14:08:23;;;;;;;3.40;2.05;;;25.40;69.50;;;;;;5041775;28;82009;-54
2021/09/11 14:10:50;;;;;;;2.92;1.92;;;25.40;69.40;;;;;;5040539;28;82912;-58
2021/09/11 14:13:15;;;;;;;4.03;1.80;;;25.40;68.50;;;;;;5041685;28;81569;-57
2021/09/11 14:15:41;;;;;;;3.03;1.85;;;25.40;68.60;;;;;;5041739;28;81573;-57
2021/09/11 14:18:07;;;;;;;2.60;1.50;;;25.40;69.10;;;;;;5041732;28;83756;-58
2021/09/11 14:20:33;;;;;;;3.22;1.90;;;25.40;69.00;;;;;;5041582;28;82195;-57
2021/09/11 14:22:58;;;;;;;3.58;2.08;;;25.40;69.20;;;;;;5036014;28;81651;-58
2021/09/11 14:25:25;;;;;;;3.47;1.85;;;25.40;69.40;;;;;;5043294;28;81088;-59
2021/09/11 14:27:50;;;;;;;3.10;2.03;;;25.50;69.30;;;;;;5044245;28;83110;-58
2021/09/11 14:30:18;;;;;;;4.00;1.65;;;25.40;68.00;;;;;;5039708;28;82343;-58
2021/09/11 14:32:45;;;;;;;5.15;1.95;;;25.50;68.20;;;;;;5040465;28;81199;-57
2021/09/11 14:35:11;;;;;;;4.45;2.03;;;25.40;68.90;;;;;;5041903;28;81433;-56
2021/09/11 14:37:37;;;;;;;2.75;1.70;;;25.50;69.20;;;;;;5044475;28;83432;-58
2021/09/11 14:40:06;;;;;;;3.30;1.67;;;25.50;69.30;;;;;;5044277;28;82980;-55
2021/09/11 14:42:33;;;;;;;2.60;1.60;;;25.50;69.50;;;;;;5039216;28;81715;-56
2021/09/11 14:44:59;;;;;;;3.63;1.65;;;25.50;69.10;;;;;;5043714;28;81768;-55
2021/09/11 14:47:29;;;;;;;6.18;2.17;;;25.50;68.80;;;;;;5040452;28;82001;-56
2021/09/11 14:49:57;;;;;;;3.70;1.88;;;25.50;68.70;;;;;;5038576;28;82003;-59
2021/09/11 14:52:23;;;;;;;4.80;1.73;;;25.50;67.90;;;;;;5040689;28;82678;-57
2021/09/11 14:54:49;;;;;;;2.60;1.65;;;25.50;67.00;;;;;;5037878;28;81669;-58
2021/09/11 14:57:14;;;;;;;3.40;1.83;;;25.50;66.20;;;;;;5038736;28;81631;-59
2021/09/11 14:59:40;;;;;;;3.10;2.15;;;25.50;66.90;;;;;;5038583;28;81782;-58
2021/09/11 15:02:06;;;;;;;4.47;1.85;;;25.50;66.20;;;;;;5042140;28;81646;-57
2021/09/11 15:04:32;;;;;;;2.42;1.70;;;25.50;66.60;;;;;;5037124;28;82635;-58
2021/09/11 15:06:57;;;;;;;4.10;2.05;;;25.50;67.20;;;;;;5034780;28;82065;-57
2021/09/11 15:09:23;;;;;;;2.55;1.77;;;25.50;66.10;;;;;;5035520;28;82570;-60
2021/09/11 15:11:49;;;;;;;3.00;1.95;;;25.50;65.80;;;;;;5034900;28;81089;-60
2021/09/11 15:14:14;;;;;;;3.10;1.88;;;25.50;66.20;;;;;;5039950;28;81069;-58
2021/09/11 15:16:40;;;;;;;3.28;1.80;;;25.50;67.10;;;;;;5039236;28;83131;-58
2021/09/11 15:19:06;;;;;;;4.32;1.73;;;25.50;67.10;;;;;;5037974;28;84930;-57
2021/09/11 15:21:32;;;;;;;2.75;1.60;;;25.50;66.90;;;;;;5041441;28;81695;-59
2021/09/11 15:23:57;;;;;;;3.78;1.73;;;25.50;66.10;;;;;;5041745;28;81439;-58
2021/09/11 15:26:24;;;;;;;5.18;1.88;;;25.50;67.00;;;;;;5040080;28;83902;-58
2021/09/11 15:28:50;;;;;;;3.13;1.70;;;25.50;67.00;;;;;;5048834;27;81878;-58
2021/09/11 15:31:15;;;;;;;5.72;1.90;;;25.50;67.20;;;;;;5050315;28;80894;-58
2021/09/11 15:33:41;;;;;;;5.07;1.50;;;25.60;67.30;;;;;;5058321;28;81542;-57
2021/09/11 15:36:08;;;;;;;20.50;2.63;;;25.60;67.20;;;;;;5035166;28;82237;-57
2021/09/11 15:38:35;;;;;;;19.23;2.35;;;25.60;67.40;;;;;;5036260;28;82523;-57
2021/09/11 15:41:00;;;;;;;9.68;1.80;;;25.60;67.60;;;;;;5046192;28;82163;-58
2021/09/11 15:43:26;;;;;;;15.45;2.00;;;25.60;67.30;;;;;;5045780;28;83687;-59
2021/09/11 15:45:55;;;;;;;5.88;1.55;;;25.60;67.60;;;;;;5046636;28;81871;-59
2021/09/11 15:48:21;;;;;;;6.80;2.20;;;25.60;67.30;;;;;;5044842;28;83457;-60
2021/09/11 15:50:47;;;;;;;7.13;2.00;;;25.60;67.10;;;;;;5044085;28;81447;-60
2021/09/11 15:53:13;;;;;;;5.93;2.13;;;25.60;67.10;;;;;;5042910;28;81674;-60
2021/09/11 15:55:39;;;;;;;4.35;1.67;;;25.60;67.60;;;;;;5046815;28;82096;-59
2021/09/11 15:58:05;;;;;;;3.22;1.65;;;25.60;67.50;;;;;;5042496;28;82317;-59
2021/09/11 16:00:31;;;;;;;5.65;2.15;;;25.60;66.20;;;;;;5046788;28;81368;-59
2021/09/11 16:02:57;;;;;;;6.88;1.83;;;25.60;67.00;;;;;;5045764;28;81125;-59
2021/09/11 16:05:22;;;;;;;4.03;1.60;;;25.60;67.10;;;;;;5029440;28;82908;-59
2021/09/11 16:07:49;;;;;;;4.50;1.73;;;25.60;65.20;;;;;;5044136;28;81849;-58
2021/09/11 16:10:16;;;;;;;3.03;1.67;;;25.60;66.50;;;;;;5026047;28;81647;-59
2021/09/11 16:12:42;;;;;;;2.67;1.75;;;25.60;62.30;;;;;;5036947;28;81667;-56
2021/09/11 16:15:09;;;;;;;3.20;1.50;;;25.50;62.40;;;;;;5032793;28;82073;-59
2021/09/11 16:17:36;;;;;;;4.32;1.63;;;25.30;60.20;;;;;;5037913;28;83556;-57
2021/09/11 16:20:02;;;;;;;2.78;1.85;;;25.10;63.00;;;;;;5043648;28;81700;-55
2021/09/11 16:22:28;;;;;;;11.05;1.70;;;25.10;62.50;;;;;;5041769;28;83977;-59
2021/09/11 16:24:54;;;;;;;14.07;1.75;;;25.00;65.70;;;;;;5045174;28;82185;-61
2021/09/11 16:27:20;;;;;;;16.17;2.03;;;25.10;67.20;;;;;;5037282;28;82499;-65
2021/09/11 16:29:45;;;;;;;8.43;1.88;;;25.20;67.60;;;;;;5039348;28;82203;-59
2021/09/11 16:32:11;;;;;;;8.73;1.80;;;25.30;67.00;;;;;;5041187;28;81577;-58
2021/09/11 16:34:37;;;;;;;10.55;1.80;;;25.30;67.40;;;;;;5037671;28;82216;-61
2021/09/11 16:37:03;;;;;;;7.00;1.48;;;25.40;67.60;;;;;;5038814;28;82301;-64
2021/09/11 16:39:29;;;;;;;6.13;1.98;;;25.40;67.80;;;;;;5038086;28;81370;-60
2021/09/11 16:41:55;;;;;;;6.35;1.88;;;25.40;67.90;;;;;;5037539;28;81877;-60
2021/09/11 16:44:21;;;;;;;4.20;1.50;;;25.50;68.20;;;;;;5035782;28;81628;-59
2021/09/11 16:46:47;;;;;;;5.07;1.75;;;25.50;68.20;;;;;;5043231;28;81945;-60
2021/09/11 16:49:12;;;;;;;4.38;1.48;;;25.50;67.70;;;;;;5038184;28;81486;-60
2021/09/11 16:51:38;;;;;;;4.97;1.27;;;25.50;67.90;;;;;;5038132;28;82759;-58
2021/09/11 16:54:04;;;;;;;2.50;1.02;;;25.50;68.10;;;;;;5035982;28;83595;-59
2021/09/11 16:56:30;;;;;;;5.13;1.58;;;25.50;67.90;;;;;;5040665;28;82882;-59
2021/09/11 16:58:56;;;;;;;4.75;1.73;;;25.60;68.10;;;;;;5048118;28;80917;-59
2021/09/11 17:01:21;;;;;;;3.88;1.67;;;25.60;68.00;;;;;;5042036;28;81680;-57
2021/09/11 17:03:48;;;;;;;3.83;1.58;;;25.60;67.80;;;;;;5041385;28;83468;-58
2021/09/11 17:06:14;;;;;;;4.57;1.67;;;25.60;67.60;;;;;;5033334;28;83432;-58
2021/09/11 17:08:40;;;;;;;4.63;1.70;;;25.60;67.70;;;;;;5030656;28;81771;-59
2021/09/11 17:11:06;;;;;;;4.32;1.80;;;25.60;67.70;;;;;;5036976;28;80945;-58